Aérodrome :
LOGIN :

S'inscrire | Disclaimer

   EN    FR    IT 

 










Légende :    VFR   VFR Marginal   IFR   IFR Intensif   IFR Très Intensif
Visi : 
Plafond : 
>= 8 km
>= 3000ft
5 à 8 km
1000 à 3000 ft
1500m à 5 km
500 à 1000 ft
800 à 1500m
200 à 500 ft
< 800m
< 200 ft
Symboles :   Orages  Brouillard  Fortes neiges  Fortes précipitations  Vent > 20 kt
SIGMETs :   Divers  Orages  Givrage  Turbulence  Onde Orograph.  Cendres Volcan.






- Altitude de l'aérodrome : 1470 ft
- Code IATA : KLU


LOWK - Klagenfurt

DERNIER METAR :
  • 091450Z VRB01KT 6000 -RASN FEW005 OVC028 00/M00 Q1008 R10/19//95 NOSIG

METARs EXPIRÉS :
  • 091420Z VRB01KT 9999 -FZRA FEW003 OVC030 M00/M00 Q1007 R10/19//95 BECMG NSW
  • 091350Z VRB02KT 9999 FEW003 OVC030 M00/M00 Q1007 R10/19//95 TEMPO -FZRA
  • 091320Z VRB01KT 9999 FEW003 BKN030 M00/M00 Q1007 R10/19//95 TEMPO -FZRA
  • 091250Z VRB02KT 9999 FEW003 BKN030 M00/M00 Q1008 R10/19//95 TEMPO -FZRA
  • 091220Z VRB01KT 9999 FEW003 BKN035 OVC050 M00/M01 Q1008 R10/19//95 TEMPO -FZRA

TAF TAF LOWK
Valide du 09 à 12h jusqu'au 10 à 12h UTC


091115Z 0912/1012 VRB02KT 9999 FEW005 SCT040 BKN050 TX03/1012Z TNM01/1007Z
TEMPO 0912/0922 -FZRA
TEMPO 0920/1008 3000 BR BKN006



MET'MAP, la Météo Aéronautique d'un coup d'oeil ! - Copyright ORBIFLY Décembre 2007 - Disclaimer

ORBIFLY MET'MAP TEAM :

Programmation & Développement : Alexandra Zaïnal
Sur une idée originale de : Baudouin d'Aumeries
Assistance à la programmation : Marc-Olivier Méhu
Soutien technique & logistique : Manuel Goepfert

Contact : metmap@orbifly.com




SOURCES & CREDITS :

   NOAA